Time;durP1;ratioP1;P1;durP2;ratioP2;P2;SDS_P1;SDS_P2;PMS_P1;PMS_P2;Temp;Humidity;BMP_temperature;BMP_pressure;BME280_temperature;BME280_humidity;BME280_pressure;Samples;Min_cycle;Max_cycle;Signal;HPM_P1;HPM_P2
2023/09/05 00:02:25;;;;;;;3.20;3.00;;;;;;;14.28;100.00;97712.59;4897634;29;20260;-62
2023/09/05 00:04:55;;;;;;;3.37;3.13;;;;;;;14.46;100.00;97726.22;4899552;29;20307;-61
2023/09/05 00:07:22;;;;;;;2.90;2.73;;;;;;;14.57;100.00;97721.34;4898120;29;20232;-58
2023/09/05 00:09:50;;;;;;;3.70;2.90;;;;;;;14.57;100.00;97721.34;4898430;29;20297;-66
2023/09/05 00:12:18;;;;;;;2.80;2.60;;;;;;;14.55;100.00;97718.06;4897003;29;20303;-64
2023/09/05 00:14:47;;;;;;;2.60;2.40;;;;;;;14.57;100.00;97721.34;4901186;29;21467;-63
2023/09/05 00:17:14;;;;;;;2.90;2.70;;;;;;;14.56;100.00;97712.56;4832262;29;20204;-64
2023/09/05 00:19:42;;;;;;;2.90;2.70;;;;;;;14.55;100.00;97723.41;4897795;29;20696;-62
2023/09/05 00:22:11;;;;;;;2.50;2.33;;;;;;;14.48;100.00;97718.84;4897639;29;20323;-66
2023/09/05 00:24:39;;;;;;;2.90;2.70;;;;;;;14.46;100.00;97725.41;4899723;29;20310;-62
2023/09/05 00:27:09;;;;;;;2.80;2.60;;;;;;;14.47;100.00;97727.06;4897052;29;20217;-65
2023/09/05 00:29:37;;;;;;;3.10;2.90;;;;;;;14.44;100.00;97727.47;4900789;29;20218;-60
2023/09/05 00:32:07;;;;;;;2.80;2.70;;;;;;;14.39;100.00;97720.03;4792835;29;20704;-63
2023/09/05 00:34:37;;;;;;;2.90;2.70;;;;;;;14.37;100.00;97707.91;4898429;29;20291;-64
2023/09/05 00:37:06;;;;;;;4.33;3.00;;;;;;;14.33;100.00;97704.81;4897808;29;20296;-59
2023/09/05 00:39:34;;;;;;;3.27;3.07;;;;;;;14.27;100.00;97705.63;4897410;29;20244;-63
2023/09/05 00:42:10;;;;;;;4.87;3.53;;;;;;;14.22;100.00;97700.84;4898013;29;20232;-63
2023/09/05 00:44:38;;;;;;;2.97;2.73;;;;;;;14.23;100.00;97696.38;4896423;29;20300;-59
2023/09/05 00:47:11;;;;;;;3.03;2.70;;;;;;;14.27;100.00;97701.09;4898730;29;20207;-61
2023/09/05 00:49:42;;;;;;;2.43;2.33;;;;;;;14.30;100.00;97700.69;4898351;29;20689;-64
2023/09/05 00:52:11;;;;;;;3.00;2.80;;;;;;;14.32;100.00;97693.31;4833892;29;20312;-62
2023/09/05 00:54:40;;;;;;;2.90;2.70;;;;;;;14.32;100.00;97700.50;4896904;29;20494;-62
2023/09/05 00:57:08;;;;;;;2.90;2.70;;;;;;;14.30;100.00;97691.91;4897540;29;20232;-62
2023/09/05 00:59:36;;;;;;;2.70;2.50;;;;;;;14.27;100.00;97694.94;4897972;29;20243;-62
2023/09/05 01:02:04;;;;;;;3.10;2.90;;;;;;;14.35;100.00;97688.63;4765980;29;20227;-62
2023/09/05 01:04:33;;;;;;;3.17;2.90;;;;;;;14.29;100.00;97696.38;4865279;29;20231;-63
2023/09/05 01:07:03;;;;;;;2.83;2.63;;;;;;;14.23;100.00;97697.16;4897211;29;20208;-63
2023/09/05 01:09:38;;;;;;;3.50;3.30;;;;;;;14.17;100.00;97698.75;4898050;29;20768;-62
2023/09/05 01:12:07;;;;;;;3.17;2.97;;;;;;;14.16;100.00;97696.31;4898345;29;20350;-65
2023/09/05 01:14:35;;;;;;;2.83;2.63;;;;;;;14.08;100.00;97701.78;4896772;29;20211;-62
2023/09/05 01:17:05;;;;;;;3.50;3.20;;;;;;;13.97;100.00;97692.47;4899323;29;20228;-62
2023/09/05 01:19:38;;;;;;;3.10;2.73;;;;;;;13.88;100.00;97689.97;4896431;29;20303;-62
2023/09/05 01:22:14;;;;;;;3.97;2.80;;;;;;;13.82;100.00;97696.03;4870924;29;20224;-64
2023/09/05 01:24:47;;;;;;;2.97;2.77;;;;;;;13.80;100.00;97698.06;4878798;29;20612;-64
2023/09/05 01:27:17;;;;;;;3.57;3.27;;;;;;;13.77;100.00;97698.44;4898842;29;20208;-64
2023/09/05 01:29:45;;;;;;;2.47;2.37;;;;;;;13.74;100.00;97694.34;4897995;29;20217;-63
2023/09/05 01:32:13;;;;;;;2.53;2.33;;;;;;;13.70;100.00;97698.41;4841710;29;20232;-65
2023/09/05 01:34:41;;;;;;;3.07;2.87;;;;;;;13.73;100.00;97702.50;4861872;29;20271;-63
2023/09/05 01:37:13;;;;;;;2.57;2.40;;;;;;;13.71;100.00;97692.06;4902452;29;20394;-66
2023/09/05 01:39:41;;;;;;;2.83;2.63;;;;;;;13.71;100.00;97691.25;4901537;29;20232;-60
2023/09/05 01:42:10;;;;;;;3.40;3.10;;;;;;;13.69;100.00;97694.09;4901021;29;21086;-64
2023/09/05 01:44:38;;;;;;;2.97;2.77;;;;;;;13.67;100.00;97695.31;4901294;29;20319;-65
2023/09/05 01:47:07;;;;;;;2.67;2.57;;;;;;;13.60;100.00;97701.41;4900548;29;20204;-62
2023/09/05 01:49:34;;;;;;;3.13;2.93;;;;;;;13.48;100.00;97700.25;4900925;29;21199;-65
2023/09/05 01:52:02;;;;;;;2.60;2.40;;;;;;;13.49;100.00;97701.91;4900872;29;20307;-64
2023/09/05 01:54:29;;;;;;;3.03;2.63;;;;;;;13.42;100.00;97693.84;4898706;29;20299;-60
2023/09/05 01:56:57;;;;;;;2.77;2.60;;;;;;;13.34;100.00;97685.13;4887531;29;20255;-63
2023/09/05 01:59:26;;;;;;;2.97;2.73;;;;;;;13.28;100.00;97697.38;4855429;29;20686;-61
2023/09/05 02:01:54;;;;;;;2.97;2.77;;;;;;;13.26;100.00;97700.19;4884475;29;20839;-65
2023/09/05 02:04:22;;;;;;;3.07;2.87;;;;;;;13.30;100.00;97690.03;4815810;29;20274;-64
2023/09/05 02:06:49;;;;;;;3.30;3.00;;;;;;;13.32;100.00;97695.97;4901329;29;20287;-60
2023/09/05 02:09:17;;;;;;;3.10;2.90;;;;;;;13.36;100.00;97693.75;4901482;29;20315;-62
2023/09/05 02:11:45;;;;;;;3.37;3.07;;;;;;;13.34;100.00;97696.59;4901526;29;20216;-64
2023/09/05 02:14:12;;;;;;;3.13;2.87;;;;;;;13.29;100.00;97696.34;4900937;29;20722;-64
2023/09/05 02:16:41;;;;;;;3.40;3.10;;;;;;;13.25;100.00;97703.03;4906023;29;20307;-62
2023/09/05 02:19:10;;;;;;;2.83;2.63;;;;;;;13.20;100.00;97692.97;4899801;29;20800;-61
2023/09/05 02:21:37;;;;;;;2.60;2.50;;;;;;;13.16;100.00;97694.38;4903373;29;20338;-62
2023/09/05 02:24:05;;;;;;;3.03;2.83;;;;;;;13.08;100.00;97697.97;4898883;29;20347;-63
2023/09/05 02:26:33;;;;;;;3.30;3.00;;;;;;;13.03;100.00;97700.34;4904878;29;20224;-64
2023/09/05 02:29:01;;;;;;;3.27;3.07;;;;;;;12.99;100.00;97697.25;4837069;29;20212;-63
2023/09/05 02:31:28;;;;;;;3.00;2.70;;;;;;;12.94;100.00;97696.16;4900339;29;20255;-62
2023/09/05 02:33:58;;;;;;;3.27;3.07;;;;;;;12.89;100.00;97704.69;4899358;29;20208;-66
2023/09/05 02:36:25;;;;;;;3.20;3.00;;;;;;;12.89;100.00;97699.38;4902640;29;20216;-59
2023/09/05 02:38:53;;;;;;;2.80;2.67;;;;;;;12.83;100.00;97690.28;4796232;29;20227;-63
2023/09/05 02:41:21;;;;;;;2.93;2.70;;;;;;;12.85;100.00;97692.78;4902659;29;20208;-59
2023/09/05 02:43:48;;;;;;;3.87;2.70;;;;;;;12.81;100.00;97699.47;4900344;29;20231;-64
2023/09/05 02:46:16;;;;;;;3.00;2.80;;;;;;;12.74;100.00;97689.59;4904831;29;20312;-61
2023/09/05 02:48:44;;;;;;;4.10;2.87;;;;;;;12.75;100.00;97693.06;4898227;29;20209;-64
2023/09/05 02:51:14;;;;;;;3.10;2.90;;;;;;;12.80;100.00;97705.81;4903934;29;20681;-63
2023/09/05 02:53:41;;;;;;;3.13;2.83;;;;;;;12.82;100.00;97693.16;4899419;29;20204;-61
2023/09/05 02:56:09;;;;;;;3.00;2.80;;;;;;;12.78;100.00;97695.34;4903194;29;20220;-62
2023/09/05 02:58:37;;;;;;;3.07;2.87;;;;;;;12.84;100.00;97696.44;4792226;29;20212;-64
2023/09/05 03:01:06;;;;;;;3.07;2.87;;;;;;;12.90;100.00;97695.69;4890330;29;22454;-59
2023/09/05 03:03:34;;;;;;;3.10;2.87;;;;;;;12.96;100.00;97696.81;4902236;29;20603;-64
2023/09/05 03:06:09;;;;;;;3.50;3.13;;;;;;;13.01;100.00;97697.06;4902030;29;20695;-64
2023/09/05 03:08:38;;;;;;;2.80;2.70;;;;;;;13.01;100.00;97695.22;4828670;29;21487;-65
2023/09/05 03:11:06;;;;;;;3.20;3.00;;;;;;;13.02;100.00;97694.19;4876253;29;20714;-61
2023/09/05 03:13:34;;;;;;;3.17;2.97;;;;;;;13.02;100.00;97693.41;4900170;29;20208;-66
2023/09/05 03:16:01;;;;;;;3.77;2.70;;;;;;;13.02;100.00;97691.53;4900364;29;20676;-62
2023/09/05 03:18:29;;;;;;;3.10;2.90;;;;;;;13.05;100.00;97692.19;4898059;29;20212;-66
2023/09/05 03:20:57;;;;;;;3.13;2.93;;;;;;;13.07;100.00;97695.47;4899733;29;20328;-59
2023/09/05 03:23:24;;;;;;;3.53;3.23;;;;;;;13.08;100.00;97686.50;4902959;29;20223;-65
2023/09/05 03:25:53;;;;;;;3.10;2.80;;;;;;;13.07;100.00;97696.31;4837561;29;20328;-62
2023/09/05 03:28:21;;;;;;;2.70;2.60;;;;;;;13.05;100.00;97693.00;4903324;29;20200;-65
2023/09/05 03:30:49;;;;;;;2.67;2.57;;;;;;;13.03;100.00;97692.38;4841892;29;20343;-65
2023/09/05 03:33:17;;;;;;;3.30;3.03;;;;;;;12.99;100.00;97693.78;4903154;29;20227;-64
2023/09/05 03:35:45;;;;;;;2.90;2.70;;;;;;;12.98;100.00;97687.59;4850234;29;21101;-64
2023/09/05 03:38:13;;;;;;;3.57;2.63;;;;;;;12.95;100.00;97688.00;4896598;29;20345;-61
2023/09/05 03:40:41;;;;;;;2.97;2.77;;;;;;;12.96;100.00;97689.63;4840296;29;22373;-65
2023/09/05 03:43:10;;;;;;;3.53;3.23;;;;;;;12.94;100.00;97683.69;4810939;29;21590;-65
2023/09/05 03:45:37;;;;;;;3.33;3.03;;;;;;;13.01;100.00;97695.22;4837861;29;20815;-62
2023/09/05 03:48:06;;;;;;;2.90;2.70;;;;;;;13.00;100.00;97690.09;4898996;29;20263;-62
2023/09/05 03:50:34;;;;;;;3.37;2.80;;;;;;;12.94;100.00;97696.97;4898910;29;20232;-61
2023/09/05 03:53:02;;;;;;;3.27;3.07;;;;;;;12.92;100.00;97691.03;4901016;29;20311;-64
2023/09/05 03:55:30;;;;;;;3.03;2.83;;;;;;;12.93;100.00;97687.34;4841764;29;20706;-64
2023/09/05 03:57:57;;;;;;;3.03;2.73;;;;;;;12.90;100.00;97697.56;4900679;29;20204;-54
2023/09/05 04:00:26;;;;;;;3.20;3.00;;;;;;;12.90;100.00;97698.38;4897592;29;20299;-62
2023/09/05 04:02:54;;;;;;;3.30;3.10;;;;;;;12.93;100.00;97700.66;4900519;29;20247;-59
2023/09/05 04:05:22;;;;;;;4.23;2.83;;;;;;;12.88;100.00;97692.41;4842616;29;21046;-65
2023/09/05 04:07:49;;;;;;;3.77;3.47;;;;;;;12.86;100.00;97694.44;4897321;29;20283;-60
2023/09/05 04:10:17;;;;;;;3.30;3.10;;;;;;;12.86;100.00;97691.78;4897786;29;20291;-65
2023/09/05 04:12:45;;;;;;;3.07;2.87;;;;;;;12.94;100.00;97689.00;4902585;29;21088;-59
2023/09/05 04:15:19;;;;;;;3.03;2.83;;;;;;;12.94;100.00;97699.63;4841408;29;20826;-64
2023/09/05 04:17:50;;;;;;;3.00;2.80;;;;;;;12.89;100.00;97696.72;4880475;29;20247;-65
2023/09/05 04:20:18;;;;;;;3.63;3.33;;;;;;;12.96;100.00;97692.28;4900182;29;20321;-64
2023/09/05 04:22:46;;;;;;;3.47;3.23;;;;;;;12.90;100.00;97698.38;4903131;29;20232;-61
2023/09/05 04:25:14;;;;;;;3.57;3.27;;;;;;;12.85;100.00;97696.25;4896860;29;20228;-64
2023/09/05 04:27:42;;;;;;;2.70;2.60;;;;;;;12.83;100.00;97692.94;4847875;29;21031;-66
2023/09/05 04:30:10;;;;;;;3.63;3.10;;;;;;;12.77;100.00;97696.34;4899050;29;20307;-63
2023/09/05 04:32:38;;;;;;;3.70;3.40;;;;;;;12.77;100.00;97704.34;4897635;29;20308;-61
2023/09/05 04:35:08;;;;;;;3.30;3.10;;;;;;;12.72;100.00;97701.41;4899881;29;20508;-66
2023/09/05 04:37:36;;;;;;;2.93;2.73;;;;;;;12.69;100.00;97691.16;4836056;29;20660;-64
2023/09/05 04:40:04;;;;;;;3.57;3.27;;;;;;;12.71;100.00;97699.75;4899709;29;20755;-60
2023/09/05 04:42:32;;;;;;;3.20;3.00;;;;;;;12.67;100.00;97701.16;4898015;29;20518;-63
2023/09/05 04:44:59;;;;;;;3.33;3.13;;;;;;;12.62;100.00;97706.19;4896016;29;20259;-60
2023/09/05 04:47:28;;;;;;;3.70;3.27;;;;;;;12.58;100.00;97711.88;4829673;29;21004;-63
2023/09/05 04:49:58;;;;;;;4.07;2.90;;;;;;;12.56;100.00;97713.91;4883688;29;20219;-63
2023/09/05 04:52:28;;;;;;;5.03;2.97;;;;;;;12.61;100.00;97710.66;4898199;29;20795;-66
2023/09/05 04:54:57;;;;;;;3.43;3.20;;;;;;;12.62;100.00;97714.97;4898561;29;20657;-64
2023/09/05 04:57:25;;;;;;;3.63;3.37;;;;;;;12.62;100.00;97714.16;4896898;29;20228;-63
2023/09/05 04:59:57;;;;;;;2.90;2.70;;;;;;;12.61;100.00;97713.34;4901965;29;20303;-62
2023/09/05 05:02:25;;;;;;;3.73;3.43;;;;;;;12.52;100.00;97706.47;4837374;29;20288;-63
2023/09/05 05:04:54;;;;;;;2.90;2.80;;;;;;;12.48;100.00;97707.84;4898302;29;20521;-62
2023/09/05 05:07:22;;;;;;;3.00;2.80;;;;;;;12.49;100.00;97702.31;4895078;29;20315;-63
2023/09/05 05:09:51;;;;;;;4.70;3.50;;;;;;;12.52;100.00;97701.16;4902038;29;20240;-62
2023/09/05 05:12:18;;;;;;;3.37;3.17;;;;;;;12.61;100.00;97700.03;4837288;29;20323;-62
2023/09/05 05:14:46;;;;;;;3.37;3.17;;;;;;;12.78;100.00;97698.00;4900536;29;20311;-64
2023/09/05 05:17:14;;;;;;;3.10;2.90;;;;;;;12.90;100.00;97701.03;4896834;29;20212;-63
2023/09/05 05:19:42;;;;;;;3.67;3.40;;;;;;;12.96;100.00;97705.59;4902468;29;20205;-63
2023/09/05 05:22:11;;;;;;;3.10;2.90;;;;;;;13.07;100.00;97706.13;4791715;29;20347;-59
2023/09/05 05:24:38;;;;;;;3.03;2.83;;;;;;;13.20;100.00;97706.28;4901549;29;20215;-65
2023/09/05 05:27:08;;;;;;;3.47;3.27;;;;;;;13.29;100.00;97710.47;4897046;29;20267;-60
2023/09/05 05:29:35;;;;;;;3.60;3.30;;;;;;;13.44;100.00;97702.47;4902543;29;20300;-60
2023/09/05 05:32:03;;;;;;;2.90;2.80;;;;;;;13.56;100.00;97701.94;4896200;29;20319;-64
2023/09/05 05:34:31;;;;;;;3.20;3.00;;;;;;;13.70;100.00;97700.25;4903132;29;20295;-61
2023/09/05 05:36:59;;;;;;;3.60;3.30;;;;;;;13.84;100.00;97701.19;4896668;29;20295;-62
2023/09/05 05:39:26;;;;;;;2.93;2.73;;;;;;;13.95;100.00;97708.63;4900703;29;20296;-61
2023/09/05 05:41:54;;;;;;;2.80;2.70;;;;;;;14.03;100.00;97699.69;4897203;29;20346;-63
2023/09/05 05:44:23;;;;;;;2.80;2.70;;;;;;;14.10;100.00;97708.56;4900917;29;20260;-65
2023/09/05 05:46:57;;;;;;;3.23;2.93;;;;;;;14.09;100.00;97682.13;4835321;29;20355;-66
2023/09/05 05:49:28;;;;;;;3.07;2.87;;;;;;;14.30;100.00;97694.56;4895868;29;20272;-60
2023/09/05 05:51:56;;;;;;;3.37;3.03;;;;;;;14.32;100.00;97682.66;4798684;29;20776;-64
2023/09/05 05:54:24;;;;;;;3.33;2.93;;;;;;;14.47;100.00;97703.06;4902093;29;20689;-62
2023/09/05 05:56:53;;;;;;;3.37;3.10;;;;;;;14.59;100.00;97693.50;4896334;29;20636;-62
2023/09/05 05:59:20;;;;;;;3.50;3.30;;;;;;;14.69;100.00;97701.13;4900157;29;20315;-63
2023/09/05 06:01:50;;;;;;;3.10;2.90;;;;;;;14.82;100.00;97699.56;4899286;29;20258;-64
2023/09/05 06:04:18;;;;;;;3.00;2.80;;;;;;;14.90;100.00;97699.41;4895981;29;20212;-64
2023/09/05 06:06:48;;;;;;;3.30;3.10;;;;;;;14.99;100.00;97698.22;4898010;29;20224;-63
2023/09/05 06:09:18;;;;;;;3.13;2.90;;;;;;;15.05;100.00;97699.25;4899526;29;20260;-62
2023/09/05 06:11:46;;;;;;;3.10;2.90;;;;;;;15.19;100.00;97692.94;4896743;29;20233;-65
2023/09/05 06:14:14;;;;;;;3.50;3.30;;;;;;;15.27;100.00;97694.59;4901758;29;20319;-61
2023/09/05 06:16:42;;;;;;;3.07;2.77;;;;;;;15.32;100.00;97686.78;4850647;29;21511;-60
2023/09/05 06:19:11;;;;;;;3.00;2.80;;;;;;;15.35;100.00;97690.91;4890347;29;20307;-63
2023/09/05 06:21:38;;;;;;;4.00;3.00;;;;;;;15.46;100.00;97694.84;4900808;29;20252;-66
2023/09/05 06:24:06;;;;;;;3.27;3.07;;;;;;;15.55;100.00;97682.94;4901817;29;20311;-61
2023/09/05 06:26:34;;;;;;;4.83;3.93;;;;;;;15.59;100.00;97681.50;4846753;29;20921;-65
2023/09/05 06:29:02;;;;;;;4.77;3.43;;;;;;;15.65;100.00;97693.22;4860799;29;20312;-63
2023/09/05 06:31:32;;;;;;;4.03;3.47;;;;;;;15.78;100.00;97685.22;4902767;29;20228;-63
2023/09/05 06:34:00;;;;;;;3.23;3.03;;;;;;;15.79;100.00;97688.72;4900791;29;20231;-63
2023/09/05 06:36:29;;;;;;;3.27;3.07;;;;;;;15.77;100.00;97691.59;4902475;29;20383;-65
2023/09/05 06:38:56;;;;;;;3.50;2.77;;;;;;;15.83;100.00;97694.47;4902656;29;20674;-61
2023/09/05 06:41:24;;;;;;;2.90;2.70;;;;;;;15.95;100.00;97700.03;4902670;29;20296;-65
2023/09/05 06:43:52;;;;;;;2.90;2.70;;;;;;;16.04;100.00;97699.63;4901473;29;20208;-58
2023/09/05 06:46:20;;;;;;;5.33;2.90;;;;;;;16.05;100.00;97701.28;4900001;29;20248;-62
2023/09/05 06:48:47;;;;;;;3.47;3.17;;;;;;;16.13;100.00;97700.25;4901543;29;20224;-62
2023/09/05 06:51:15;;;;;;;2.83;2.73;;;;;;;16.18;100.00;97679.06;4894341;29;20204;-65
2023/09/05 06:53:44;;;;;;;2.90;2.70;;;;;;;16.36;100.00;97696.31;4853007;29;20344;-61
2023/09/05 06:56:12;;;;;;;3.13;2.70;;;;;;;16.34;100.00;97693.00;4891745;29;20775;-65
2023/09/05 06:58:40;;;;;;;3.20;2.90;;;;;;;16.38;100.00;97698.78;4817596;29;20221;-63
2023/09/05 07:01:08;;;;;;;2.93;2.83;;;;;;;16.38;100.00;97696.91;4902640;29;20728;-64
2023/09/05 07:03:35;;;;;;;3.20;3.00;;;;;;;16.41;100.00;97699.16;4898912;29;20211;-62
2023/09/05 07:06:04;;;;;;;3.80;3.50;;;;;;;16.40;100.00;97700.19;4902905;29;20319;-60
2023/09/05 07:08:34;;;;;;;3.23;3.03;;;;;;;16.46;100.00;97701.22;4900741;29;20215;-64
2023/09/05 07:11:04;;;;;;;2.97;2.73;;;;;;;16.57;100.00;97697.91;4903427;29;20216;-63
2023/09/05 07:13:31;;;;;;;3.53;2.63;;;;;;;16.67;100.00;97697.47;4897180;29;20291;-62
2023/09/05 07:15:59;;;;;;;3.60;3.30;;;;;;;16.73;100.00;97691.28;4904042;29;20324;-66
2023/09/05 07:18:27;;;;;;;3.20;2.70;;;;;;;16.87;100.00;97688.56;4897662;29;20214;-61
2023/09/05 07:20:55;;;;;;;2.90;2.80;;;;;;;16.95;100.00;97696.34;4903338;29;20238;-61
2023/09/05 07:23:23;;;;;;;3.03;2.10;;;;;;;17.12;100.00;97698.56;4833797;29;20225;-66
2023/09/05 07:25:50;;;;;;;3.40;3.20;;;;;;;17.19;100.00;97693.97;4902496;29;20263;-64
2023/09/05 07:28:19;;;;;;;2.97;2.77;;;;;;;17.37;100.00;97687.91;4898622;29;20299;-65
2023/09/05 07:30:47;;;;;;;3.50;2.87;;;;;;;17.59;100.00;97677.66;4902900;29;20688;-66
2023/09/05 07:33:15;;;;;;;2.97;2.77;;;;;;;17.56;100.00;97678.09;4759922;29;21909;-62
2023/09/05 07:35:42;;;;;;;3.27;3.07;;;;;;;17.75;100.00;97683.53;4878406;29;20204;-63
2023/09/05 07:38:12;;;;;;;3.20;3.00;;;;;;;18.07;100.00;97686.19;4901624;29;20288;-67
2023/09/05 07:40:39;;;;;;;3.73;2.80;;;;;;;18.22;100.00;97688.53;4899516;29;20220;-59
2023/09/05 07:43:07;;;;;;;2.73;2.63;;;;;;;18.28;100.00;97698.38;4898835;29;20819;-65
2023/09/05 07:45:36;;;;;;;2.73;2.53;;;;;;;18.40;100.00;97690.44;4901629;29;20591;-64
2023/09/05 07:48:07;;;;;;;2.60;2.50;;;;;;;18.62;100.00;97682.75;4901671;29;20220;-68
2023/09/05 07:50:34;;;;;;;2.57;2.40;;;;;;;18.81;100.00;97690.78;4901134;29;20252;-61
2023/09/05 07:53:02;;;;;;;3.23;2.93;;;;;;;18.72;100.00;97684.91;4887507;29;20228;-61
2023/09/05 07:55:30;;;;;;;2.57;2.47;;;;;;;18.59;100.00;97685.06;4854449;29;20608;-65
2023/09/05 07:57:58;;;;;;;4.90;4.60;;;;;;;18.40;100.00;97676.19;4902094;29;20228;-66
2023/09/05 08:00:27;;;;;;;2.80;2.57;;;;;;;18.60;100.00;97673.28;4895443;29;20364;-61
2023/09/05 08:02:57;;;;;;;2.20;2.10;;;;;;;18.81;100.00;97677.38;4895606;29;20261;-65
2023/09/05 08:05:25;;;;;;;2.73;2.53;;;;;;;18.98;100.00;97680.28;4820212;29;20220;-62
2023/09/05 08:07:52;;;;;;;3.03;2.80;;;;;;;19.22;100.00;97685.78;4903456;29;20311;-63
2023/09/05 08:10:20;;;;;;;2.57;2.47;;;;;;;19.14;100.00;97678.84;4894478;29;20759;-62
2023/09/05 08:12:48;;;;;;;3.00;2.77;;;;;;;19.14;100.00;97672.66;4901411;29;20228;-61
2023/09/05 08:15:15;;;;;;;2.57;2.47;;;;;;;19.09;100.00;97673.34;4897406;29;20764;-63
2023/09/05 08:17:43;;;;;;;2.70;2.60;;;;;;;19.13;100.00;97674.53;4903719;29;20216;-61
2023/09/05 08:20:12;;;;;;;2.93;2.67;;;;;;;19.21;100.00;97666.13;4896340;29;20295;-68
2023/09/05 08:22:40;;;;;;;2.67;2.47;;;;;;;19.20;100.00;97674.44;4900398;29;20236;-65
2023/09/05 08:25:09;;;;;;;2.73;2.53;;;;;;;19.40;100.00;97668.78;4898210;29;20311;-59
2023/09/05 08:27:37;;;;;;;2.60;2.40;;;;;;;19.29;100.00;97665.00;4903398;29;20232;-60
2023/09/05 08:30:07;;;;;;;2.50;2.40;;;;;;;19.30;100.00;97665.81;4836796;29;20595;-65
2023/09/05 08:32:35;;;;;;;2.47;2.37;;;;;;;19.41;100.00;97664.22;4901313;29;20248;-59
2023/09/05 08:35:04;;;;;;;2.80;2.60;;;;;;;19.42;100.00;97664.00;4898058;29;20205;-61
2023/09/05 08:37:33;;;;;;;2.60;2.50;;;;;;;19.61;100.00;97662.06;4901011;29;21667;-62
2023/09/05 08:40:00;;;;;;;3.50;2.43;;;;;;;19.77;100.00;97662.41;4809693;29;20224;-65
2023/09/05 08:42:30;;;;;;;2.37;2.27;;;;;;;20.00;100.00;97666.22;4899350;29;20224;-63
2023/09/05 08:44:59;;;;;;;2.93;2.73;;;;;;;20.05;100.00;97655.59;4900354;29;20587;-62
2023/09/05 08:47:27;;;;;;;2.50;2.40;;;;;;;20.14;100.00;97662.25;4898377;29;20252;-62
2023/09/05 08:49:55;;;;;;;2.63;2.50;;;;;;;20.34;100.00;97661.88;4900155;29;20216;-61
2023/09/05 08:52:24;;;;;;;2.63;2.43;;;;;;;20.45;100.00;97657.53;4900323;29;20224;-63
2023/09/05 08:54:53;;;;;;;3.00;2.80;;;;;;;20.49;100.00;97668.66;4899134;29;20204;-64
2023/09/05 08:57:22;;;;;;;2.87;2.70;;;;;;;20.37;100.00;97660.59;4897366;29;20254;-63
2023/09/05 08:59:49;;;;;;;3.20;2.90;;;;;;;20.39;100.00;97661.19;4835166;29;20299;-64
2023/09/05 09:02:20;;;;;;;3.37;2.60;;;;;;;20.40;100.00;97649.38;4899437;29;20319;-66
2023/09/05 09:04:51;;;;;;;3.00;2.80;;;;;;;20.43;100.00;97648.06;4899063;29;20287;-61
2023/09/05 09:07:18;;;;;;;2.60;2.43;;;;;;;20.64;100.00;97668.16;4898504;29;20657;-62
2023/09/05 09:09:46;;;;;;;2.83;2.63;;;;;;;20.70;100.00;97659.16;4898735;29;20237;-62
2023/09/05 09:12:15;;;;;;;2.50;2.40;;;;;;;20.71;100.00;97655.41;4898186;29;20280;-65
2023/09/05 09:14:43;;;;;;;2.70;2.50;;;;;;;20.64;100.00;97654.69;4802520;29;20224;-63
2023/09/05 09:17:11;;;;;;;2.47;2.37;;;;;;;20.79;100.00;97655.03;4902665;29;20208;-62
2023/09/05 09:19:39;;;;;;;2.83;2.60;;;;;;;21.06;98.92;97656.34;4899601;29;20235;-62
2023/09/05 09:22:08;;;;;;;2.97;2.63;;;;;;;21.00;100.00;97655.44;4899532;29;20288;-65
2023/09/05 09:24:36;;;;;;;2.70;2.60;;;;;;;21.00;96.83;97657.31;4897886;29;20235;-64
2023/09/05 09:27:05;;;;;;;3.10;2.90;;;;;;;21.15;93.88;97652.22;4900410;29;20639;-63
2023/09/05 09:29:35;;;;;;;3.43;3.07;;;;;;;21.23;88.67;97651.84;4898142;29;20735;-63
2023/09/05 09:32:04;;;;;;;2.67;2.53;;;;;;;21.27;87.80;97641.38;4902209;29;20236;-62
2023/09/05 09:34:34;;;;;;;3.00;2.80;;;;;;;21.31;86.29;97647.91;4832367;29;20360;-62
2023/09/05 09:37:02;;;;;;;2.50;2.40;;;;;;;21.51;86.70;97655.53;4900681;29;20224;-61
2023/09/05 09:39:30;;;;;;;2.77;2.57;;;;;;;21.66;89.62;97628.06;4892633;29;20615;-63
2023/09/05 09:41:59;;;;;;;3.00;2.90;;;;;;;21.60;85.29;97652.47;4900548;29;20307;-64
2023/09/05 09:44:28;;;;;;;2.70;2.50;;;;;;;21.65;88.27;97641.78;4896272;29;20208;-60
2023/09/05 09:46:58;;;;;;;5.17;2.63;;;;;;;21.50;86.61;97636.94;4901465;29;20268;-63
2023/09/05 09:49:28;;;;;;;3.00;2.57;;;;;;;21.71;87.29;97631.88;4802642;29;20713;-63
2023/09/05 09:51:57;;;;;;;2.93;2.63;;;;;;;21.74;84.35;97628.69;4901388;29;20732;-61
2023/09/05 09:54:31;;;;;;;2.50;2.30;;;;;;;21.82;89.34;97631.00;4899951;29;20208;-62
2023/09/05 09:57:00;;;;;;;3.00;2.80;;;;;;;21.77;82.79;97631.75;4905480;29;20641;-61
2023/09/05 09:59:35;;;;;;;2.40;2.30;;;;;;;22.00;88.21;97621.00;4899014;29;20207;-61
2023/09/05 10:02:07;;;;;;;3.00;2.80;;;;;;;21.87;73.72;97617.59;4904571;29;20712;-62
2023/09/05 10:04:40;;;;;;;2.90;2.70;;;;;;;21.94;79.00;97615.53;4901312;29;20211;-62
2023/09/05 10:07:08;;;;;;;4.13;2.70;;;;;;;21.90;79.13;97619.81;4904483;29;20712;-62
2023/09/05 10:09:37;;;;;;;2.80;2.60;;;;;;;22.03;72.78;97620.50;4837846;29;20232;-64
2023/09/05 10:12:06;;;;;;;3.40;3.20;;;;;;;22.03;66.21;97620.50;4903683;29;20240;-62
2023/09/05 10:14:36;;;;;;;2.87;2.67;;;;;;;22.29;65.06;97610.09;4901599;29;20219;-63
2023/09/05 10:17:05;;;;;;;4.07;3.70;;;;;;;22.40;63.02;97609.97;4902060;29;20306;-64
2023/09/05 10:19:33;;;;;;;2.80;2.57;;;;;;;22.50;63.94;97613.88;4804260;29;20749;-60
2023/09/05 10:22:02;;;;;;;2.60;2.50;;;;;;;22.48;60.02;97608.72;4903535;29;20319;-64
2023/09/05 10:24:31;;;;;;;2.67;2.50;;;;;;;22.61;62.81;97607.53;4900606;29;20307;-61
2023/09/05 10:26:59;;;;;;;3.20;3.00;;;;;;;22.78;61.14;97602.06;4903610;29;20236;-62
2023/09/05 10:29:41;;;;;;;3.03;2.80;;;;;;;22.79;66.65;97601.00;4901737;29;20598;-60
2023/09/05 10:32:11;;;;;;;2.40;2.30;;;;;;;22.79;65.26;97603.69;4903843;29;20315;-63
2023/09/05 10:34:55;;;;;;;2.93;2.73;;;;;;;22.69;72.38;97584.69;4900526;29;20243;-66
2023/09/05 10:37:27;;;;;;;2.83;2.27;;;;;;;22.69;71.52;97588.19;4901624;29;20209;-66
2023/09/05 10:39:57;;;;;;;2.73;2.60;;;;;;;22.72;70.44;97584.16;4838014;29;20244;-62
2023/09/05 10:42:29;;;;;;;2.90;2.70;;;;;;;22.70;71.80;97578.22;4902362;29;20228;-61
2023/09/05 10:44:59;;;;;;;3.07;2.77;;;;;;;22.65;68.83;97586.25;4900697;29;20216;-61
2023/09/05 10:47:29;;;;;;;2.97;2.77;;;;;;;22.82;72.42;97578.06;4902855;29;20200;-64
2023/09/05 10:49:58;;;;;;;3.03;2.83;;;;;;;22.95;70.17;97579.56;4900179;29;20719;-62
2023/09/05 10:52:29;;;;;;;3.27;3.07;;;;;;;22.94;69.81;97572.53;4901163;29;20232;-65
2023/09/05 10:54:58;;;;;;;2.77;2.57;;;;;;;22.98;72.75;97562.84;4803327;29;20220;-62
2023/09/05 10:57:39;;;;;;;2.70;2.60;;;;;;;22.86;69.05;97570.25;4902183;29;20209;-64
2023/09/05 11:00:26;;;;;;;3.27;3.07;;;;;;;22.68;70.60;97569.53;4900845;29;20596;-63
2023/09/05 11:02:57;;;;;;;2.90;2.70;;;;;;;22.78;70.24;97569.66;4902594;29;20522;-65
2023/09/05 11:05:27;;;;;;;3.13;2.93;;;;;;;22.75;70.81;97567.47;4895268;29;20299;-61
2023/09/05 11:07:55;;;;;;;3.80;3.03;;;;;;;22.78;70.48;97566.94;4904387;29;20204;-64
2023/09/05 11:10:26;;;;;;;2.50;2.40;;;;;;;22.91;72.11;97557.63;4898306;29;20204;-64
2023/09/05 11:12:54;;;;;;;3.13;2.83;;;;;;;23.05;69.56;97551.81;4899696;29;20357;-68
2023/09/05 11:15:30;;;;;;;3.10;2.80;;;;;;;22.99;62.87;97554.47;4842052;29;20213;-64
2023/09/05 11:18:04;;;;;;;2.80;2.60;;;;;;;23.08;64.93;97565.63;4902544;29;20214;-62
2023/09/05 11:20:39;;;;;;;2.83;2.63;;;;;;;23.07;63.90;97558.59;4898930;29;20204;-61
2023/09/05 11:23:14;;;;;;;3.23;3.03;;;;;;;23.09;61.19;97553.75;4903441;29;20224;-64
2023/09/05 11:25:43;;;;;;;2.97;2.80;;;;;;;23.28;62.73;97542.56;4900573;29;20215;-64
2023/09/05 11:28:11;;;;;;;2.70;2.50;;;;;;;23.34;63.78;97546.97;4859830;29;21652;-63
2023/09/05 11:30:40;;;;;;;2.60;2.40;;;;;;;23.51;67.39;97546.81;4849656;29;20216;-62
2023/09/05 11:33:10;;;;;;;4.40;3.10;;;;;;;23.50;69.19;97534.38;4845168;29;20296;-62
2023/09/05 11:35:38;;;;;;;3.43;3.23;;;;;;;23.55;65.92;97545.22;4895223;29;20214;-61